Time;durP1;ratioP1;P1;durP2;ratioP2;P2;SDS_P1;SDS_P2;PMS_P1;PMS_P2;Temp;Humidity;BMP_temperature;BMP_pressure;BME280_temperature;BME280_humidity;BME280_pressure;Samples;Min_cycle;Max_cycle;Signal;HPM_P1;HPM_P2
2022/01/04 00:01:25;;;;;;;5.95;2.72;;;;;;;8.54;95.94;100143.59;5117390;28;20372;-67
2022/01/04 00:03:50;;;;;;;6.00;3.10;;;;;;;8.48;96.72;100148.91;5117656;28;20034;-67
2022/01/04 00:06:16;;;;;;;7.10;3.00;;;;;;;8.47;96.87;100139.38;5117287;28;20440;-67
2022/01/04 00:08:41;;;;;;;5.45;2.90;;;;;;;8.42;97.13;100126.41;5117165;28;20451;-65
2022/01/04 00:11:19;;;;;;;9.85;3.05;;;;;;;8.45;97.42;100134.19;5116896;28;20027;-66
2022/01/04 00:13:45;;;;;;;5.78;3.13;;;;;;;8.52;96.34;100134.91;5117193;28;20047;-66
2022/01/04 00:16:11;;;;;;;7.22;2.92;;;;;;;8.43;96.63;100122.91;5116687;28;20035;-65
2022/01/04 00:18:40;;;;;;;4.38;3.08;;;;;;;8.50;96.94;100129.72;5117026;28;20039;-66
2022/01/04 00:21:06;;;;;;;6.88;3.00;;;;;;;8.34;97.81;100110.88;5116742;28;20023;-69
2022/01/04 00:23:32;;;;;;;5.50;2.45;;;;;;;8.37;97.50;100117.78;5116540;28;20577;-66
2022/01/04 00:25:58;;;;;;;6.40;2.90;;;;;;;8.48;96.36;100109.81;5116722;28;20139;-67
2022/01/04 00:28:23;;;;;;;6.45;2.85;;;;;;;8.33;97.55;100103.94;5117025;28;20031;-65
2022/01/04 00:30:49;;;;;;;8.48;2.92;;;;;;;8.38;97.22;100093.44;5116749;28;20049;-68
2022/01/04 00:33:16;;;;;;;6.68;3.22;;;;;;;8.36;97.58;100088.25;5117133;28;20035;-67
2022/01/04 00:35:42;;;;;;;6.28;2.85;;;;;;;8.36;98.00;100084.78;5116452;28;20106;-67
2022/01/04 00:38:08;;;;;;;6.65;3.17;;;;;;;8.32;97.57;100059.63;5116458;28;20116;-66
2022/01/04 00:40:33;;;;;;;6.38;3.10;;;;;;;8.29;98.01;100064.91;5116498;28;20082;-67
2022/01/04 00:42:58;;;;;;;7.45;3.10;;;;;;;8.21;97.97;100043.31;5116676;28;20055;-69
2022/01/04 00:45:35;;;;;;;7.82;3.40;;;;;;;8.36;97.67;100058.72;5116754;28;20437;-69
2022/01/04 00:50:28;;;;;;;7.25;3.33;;;;;;;8.28;98.07;100055.34;5115662;28;20095;-66
2022/01/04 00:52:55;;;;;;;6.60;3.50;;;;;;;8.26;98.12;100054.53;5116374;28;20084;-66
2022/01/04 00:55:21;;;;;;;5.88;3.25;;;;;;;8.24;98.04;100043.25;5115977;28;20419;-65
2022/01/04 00:57:46;;;;;;;7.15;3.65;;;;;;;8.23;98.50;100050.22;5116269;28;20032;-67
2022/01/04 01:00:13;;;;;;;7.15;3.50;;;;;;;8.24;98.09;100043.25;5116000;28;20027;-66
2022/01/04 01:02:39;;;;;;;9.13;3.60;;;;;;;8.32;98.05;100038.78;5116201;28;20031;-66
2022/01/04 01:05:05;;;;;;;8.43;3.53;;;;;;;8.22;98.60;100025.03;5116127;28;20039;-65
2022/01/04 01:07:31;;;;;;;6.30;3.50;;;;;;;8.19;98.54;100029.44;5115866;28;20180;-68
2022/01/04 01:12:40;;;;;;;5.70;3.35;;;;;;;8.21;98.01;100019.84;5115635;28;20078;-67
2022/01/04 01:15:07;;;;;;;8.77;3.90;;;;;;;8.18;98.33;100028.56;5115366;28;20438;-70
2022/01/04 01:17:34;;;;;;;7.05;3.72;;;;;;;8.16;98.42;100025.13;5115764;28;20477;-65
2022/01/04 01:19:59;;;;;;;8.77;3.83;;;;;;;8.06;98.63;100012.28;5115368;28;20446;-66
2022/01/04 01:22:25;;;;;;;8.38;3.97;;;;;;;8.24;97.92;100025.00;5115993;28;20039;-69
2022/01/04 01:24:50;;;;;;;8.50;3.92;;;;;;;8.14;98.60;100011.25;5115773;28;20084;-67
2022/01/04 01:27:15;;;;;;;8.63;4.10;;;;;;;8.12;98.08;100010.44;5115755;28;20032;-66
2022/01/04 01:29:40;;;;;;;8.05;4.03;;;;;;;8.18;98.33;100010.31;5115758;28;20027;-65
2022/01/04 01:32:06;;;;;;;10.25;4.53;;;;;;;8.14;98.44;100007.81;5115556;28;20035;-67
2022/01/04 01:34:32;;;;;;;8.82;4.65;;;;;;;8.16;98.30;100000.81;5115700;28;20035;-66
2022/01/04 01:36:57;;;;;;;10.50;4.50;;;;;;;8.13;98.66;99998.28;5115325;28;20515;-68
2022/01/04 01:39:22;;;;;;;11.27;4.57;;;;;;;8.15;98.02;99988.66;5115642;28;20035;-65
2022/01/04 01:41:47;;;;;;;10.68;4.60;;;;;;;8.13;98.17;99998.28;5115781;28;20027;-66
2022/01/04 01:44:13;;;;;;;7.78;4.22;;;;;;;8.09;98.31;99980.97;5115758;28;20139;-67
2022/01/04 01:46:38;;;;;;;9.32;4.82;;;;;;;8.11;98.34;99984.41;5115374;28;20043;-65
2022/01/04 01:49:03;;;;;;;9.68;4.70;;;;;;;8.08;98.42;99980.13;5115377;28;20051;-66
2022/01/04 01:51:30;;;;;;;11.85;4.97;;;;;;;8.10;98.41;99993.97;5115391;28;20335;-67
2022/01/04 01:53:56;;;;;;;11.38;4.72;;;;;;;8.16;97.86;99972.16;5115705;28;20035;-66
2022/01/04 01:56:22;;;;;;;9.70;4.65;;;;;;;8.07;98.57;99977.53;5115263;28;20036;-66
2022/01/04 01:58:47;;;;;;;10.45;4.95;;;;;;;8.04;98.55;99975.84;5115089;28;20372;-65
2022/01/04 02:01:13;;;;;;;9.98;5.07;;;;;;;8.14;97.67;99980.00;5115224;28;20024;-66
2022/01/04 02:03:39;;;;;;;10.73;4.88;;;;;;;8.13;97.41;99980.03;5115403;28;20028;-65
2022/01/04 02:06:04;;;;;;;11.55;5.10;;;;;;;8.10;97.75;99972.28;5115877;28;20093;-67
2022/01/04 02:08:30;;;;;;;11.57;4.97;;;;;;;8.15;97.01;99962.59;5119737;28;20354;-67
2022/01/04 02:10:57;;;;;;;11.45;5.40;;;;;;;8.09;97.71;99962.72;5119091;28;20039;-64
2022/01/04 02:13:24;;;;;;;10.30;5.30;;;;;;;8.00;98.09;99954.19;5119113;28;20109;-67
2022/01/04 02:15:50;;;;;;;11.32;5.75;;;;;;;7.91;98.12;99938.72;5119376;28;20027;-66
2022/01/04 02:18:15;;;;;;;9.93;5.43;;;;;;;7.96;98.51;99949.06;5119415;28;20037;-66
2022/01/04 02:20:40;;;;;;;12.65;5.80;;;;;;;7.94;98.22;99943.88;5119184;28;20051;-67
2022/01/04 02:23:05;;;;;;;13.02;5.68;;;;;;;7.91;99.03;99933.50;5119232;28;20031;-67
2022/01/04 02:25:31;;;;;;;10.68;5.40;;;;;;;7.91;98.35;99930.03;5119113;28;20059;-66
2022/01/04 02:27:56;;;;;;;10.40;5.60;;;;;;;7.91;98.50;99933.50;5119141;28;20063;-65
2022/01/04 02:30:22;;;;;;;12.32;5.85;;;;;;;8.01;97.13;99931.59;5118927;28;20027;-69
2022/01/04 02:32:47;;;;;;;13.32;5.57;;;;;;;7.90;98.55;99930.94;5118790;28;20019;-66
2022/01/04 02:35:15;;;;;;;10.50;5.70;;;;;;;7.99;97.52;99933.34;5118634;28;20032;-66
2022/01/04 02:37:41;;;;;;;11.27;5.40;;;;;;;8.02;97.21;99930.72;5118758;28;20063;-66
2022/01/04 02:40:07;;;;;;;11.15;5.35;;;;;;;7.99;97.51;99931.63;5118884;28;20067;-66
2022/01/04 02:42:32;;;;;;;13.68;5.78;;;;;;;7.90;97.98;99931.78;5118350;28;20039;-66
2022/01/04 02:45:00;;;;;;;11.55;5.38;;;;;;;7.94;97.74;99927.38;5118633;28;20111;-66
2022/01/04 02:47:26;;;;;;;11.98;6.03;;;;;;;7.97;97.46;99915.16;5118629;28;20031;-68
2022/01/04 02:49:51;;;;;;;11.45;5.57;;;;;;;7.86;98.10;99904.06;5118316;28;20461;-67
2022/01/04 02:52:17;;;;;;;11.70;5.05;;;;;;;8.06;96.67;99910.66;5118824;28;20110;-68
2022/01/04 02:54:42;;;;;;;11.30;5.65;;;;;;;7.99;96.94;99904.69;5118521;28;20048;-65
2022/01/04 02:57:07;;;;;;;11.35;5.38;;;;;;;8.10;96.11;99896.72;5118889;28;20024;-66
2022/01/04 02:59:33;;;;;;;10.88;5.68;;;;;;;7.90;97.58;99890.13;5118492;28;20114;-67
2022/01/04 03:01:58;;;;;;;11.65;5.78;;;;;;;7.94;97.11;99890.91;5100337;28;20040;-65
2022/01/04 03:04:23;;;;;;;11.20;6.05;;;;;;;7.95;97.29;99885.69;5118388;28;20061;-69
2022/01/04 03:06:48;;;;;;;8.73;4.93;;;;;;;7.79;97.47;99866.00;5118272;28;20032;-67
2022/01/04 03:09:15;;;;;;;10.90;5.13;;;;;;;7.88;97.80;99888.41;5118525;28;20047;-66
2022/01/04 03:11:41;;;;;;;10.68;5.03;;;;;;;7.97;96.92;99883.03;5118390;28;20126;-66
2022/01/04 03:14:06;;;;;;;11.25;5.10;;;;;;;7.89;96.87;99869.28;5118049;28;20083;-65
2022/01/04 03:16:31;;;;;;;12.10;5.55;;;;;;;7.84;97.72;99866.78;5118123;28;20458;-68
2022/01/04 03:19:03;;;;;;;10.00;4.85;;;;;;;7.88;97.33;99863.22;5118417;28;20338;-65
2022/01/04 03:21:30;;;;;;;11.32;5.05;;;;;;;7.81;97.49;99858.16;5118082;28;20028;-65
2022/01/04 03:23:56;;;;;;;9.60;5.28;;;;;;;7.85;96.92;99842.44;5118225;28;20084;-63
2022/01/04 03:26:21;;;;;;;11.10;5.13;;;;;;;7.90;97.45;99847.56;5117953;28;20498;-64
2022/01/04 03:28:46;;;;;;;7.65;4.32;;;;;;;7.84;97.62;99837.25;5118158;28;20042;-64
2022/01/04 03:31:12;;;;;;;7.75;5.10;;;;;;;7.85;97.55;99829.41;5118130;28;20032;-66
2022/01/04 03:33:37;;;;;;;9.45;5.07;;;;;;;7.89;97.47;99831.09;5117673;28;20062;-65
2022/01/04 03:36:04;;;;;;;9.77;4.80;;;;;;;7.90;97.09;99830.19;5118460;28;20024;-67
2022/01/04 03:38:30;;;;;;;9.68;4.70;;;;;;;7.80;97.91;99819.97;5117535;28;20427;-64
2022/01/04 03:40:55;;;;;;;12.10;5.15;;;;;;;7.84;97.43;99813.81;5118770;28;20110;-64
2022/01/04 03:43:24;;;;;;;8.07;4.32;;;;;;;7.90;96.90;99803.28;5123178;28;20110;-63
2022/01/04 03:45:49;;;;;;;8.00;4.32;;;;;;;7.80;97.60;99797.38;5118879;28;20502;-67
2022/01/04 03:48:15;;;;;;;10.13;4.68;;;;;;;7.79;97.79;99798.31;5117572;28;20042;-64
2022/01/04 03:50:40;;;;;;;7.32;4.50;;;;;;;7.78;98.04;99793.97;5117568;28;20106;-68
2022/01/04 03:53:06;;;;;;;14.48;4.75;;;;;;;7.75;97.63;99781.00;5117578;28;20035;-66
2022/01/04 03:55:32;;;;;;;10.32;4.60;;;;;;;7.85;97.16;99777.31;5117779;28;20092;-64
2022/01/04 03:57:57;;;;;;;9.77;4.55;;;;;;;7.77;97.98;99771.44;5117196;28;20137;-65
2022/01/04 04:00:22;;;;;;;8.13;4.47;;;;;;;7.75;97.89;99773.19;5116934;28;20031;-64
2022/01/04 04:02:48;;;;;;;9.45;5.32;;;;;;;7.75;97.93;99767.13;5117465;28;20059;-68
2022/01/04 04:05:15;;;;;;;7.75;5.22;;;;;;;7.68;98.43;99762.03;5117259;28;20456;-63
2022/01/04 04:07:40;;;;;;;9.43;5.18;;;;;;;7.66;98.33;99744.72;5117332;28;20122;-65
2022/01/04 04:10:06;;;;;;;12.15;5.82;;;;;;;7.76;98.26;99748.00;5117496;28;20409;-67
2022/01/04 04:12:31;;;;;;;12.38;5.75;;;;;;;7.70;98.45;99748.97;5116866;28;20031;-68
2022/01/04 04:14:58;;;;;;;12.18;6.38;;;;;;;7.68;98.79;99741.19;5117002;28;20055;-68
2022/01/04 04:17:24;;;;;;;14.23;6.35;;;;;;;7.74;98.25;99742.84;5117012;28;20066;-67
2022/01/04 04:19:49;;;;;;;13.27;6.60;;;;;;;7.74;98.46;99734.16;5116765;28;20067;-66
2022/01/04 04:22:14;;;;;;;12.02;6.43;;;;;;;7.71;99.00;99729.88;5116799;28;20433;-67
2022/01/04 04:24:41;;;;;;;10.82;6.60;;;;;;;7.68;98.82;99733.38;5117181;28;20028;-66
2022/01/04 04:27:06;;;;;;;11.73;6.20;;;;;;;7.71;99.33;99729.00;5116755;28;20054;-65
2022/01/04 04:29:33;;;;;;;12.60;6.32;;;;;;;7.75;98.61;99718.50;5116142;28;20070;-65
2022/01/04 04:31:58;;;;;;;12.23;6.40;;;;;;;7.61;99.25;99707.53;5116699;28;20031;-66
2022/01/04 04:34:23;;;;;;;12.57;6.50;;;;;;;7.72;98.96;99728.97;5116729;28;20038;-68
2022/01/04 04:36:49;;;;;;;11.73;6.25;;;;;;;7.73;99.09;99729.84;5116789;28;20027;-67
2022/01/04 04:39:14;;;;;;;11.93;6.55;;;;;;;7.67;99.31;99723.00;5116525;28;20443;-67
2022/01/04 04:41:39;;;;;;;11.55;6.93;;;;;;;7.69;98.95;99711.66;5116588;28;20027;-64
2022/01/04 04:44:04;;;;;;;12.75;6.43;;;;;;;7.71;99.05;99719.44;5116469;28;20454;-64
2022/01/04 04:46:30;;;;;;;13.80;6.53;;;;;;;7.64;98.37;99697.88;5116115;28;20027;-67
2022/01/04 04:48:55;;;;;;;9.93;6.43;;;;;;;7.79;98.22;99711.50;5116423;28;20027;-68
2022/01/04 04:51:20;;;;;;;10.25;6.28;;;;;;;7.66;99.07;99718.69;5116268;28;20031;-66
2022/01/04 04:53:46;;;;;;;15.15;6.75;;;;;;;7.63;99.19;99722.19;5116342;28;20027;-67
2022/01/04 04:56:11;;;;;;;11.80;6.93;;;;;;;7.62;99.40;99724.81;5116416;28;20514;-66
2022/01/04 04:58:36;;;;;;;12.35;7.32;;;;;;;7.69;98.81;99724.69;5116754;28;20039;-65
2022/01/04 05:01:01;;;;;;;11.88;6.75;;;;;;;7.63;99.50;99716.97;5115962;28;20031;-64
2022/01/04 05:03:27;;;;;;;13.23;6.80;;;;;;;7.64;99.19;99712.63;5116251;28;20023;-65
2022/01/04 05:05:52;;;;;;;13.27;7.43;;;;;;;7.68;98.55;99709.94;5116300;28;20459;-65
2022/01/04 05:08:17;;;;;;;14.07;7.22;;;;;;;7.62;99.15;99698.78;5116205;28;20027;-66
2022/01/04 05:10:42;;;;;;;12.93;7.28;;;;;;;7.61;99.35;99710.13;5116126;28;20387;-66
2022/01/04 05:13:08;;;;;;;13.05;7.45;;;;;;;7.62;99.54;99709.19;5115785;28;20054;-66
2022/01/04 05:15:34;;;;;;;14.00;7.68;;;;;;;7.65;98.84;99715.22;5115631;28;20232;-65
2022/01/04 05:17:59;;;;;;;14.77;7.47;;;;;;;7.59;99.36;99706.69;5115968;28;20124;-66
2022/01/04 05:20:24;;;;;;;13.88;7.70;;;;;;;7.57;99.87;99691.09;5115924;28;20020;-66
2022/01/04 05:22:49;;;;;;;13.85;7.50;;;;;;;7.62;99.82;99704.00;5115656;28;20316;-68
2022/01/04 05:25:15;;;;;;;11.80;7.40;;;;;;;7.69;99.07;99693.44;5115925;28;20027;-68
2022/01/04 05:27:40;;;;;;;13.02;7.90;;;;;;;7.62;99.33;99684.03;5115579;28;20353;-65
2022/01/04 05:30:06;;;;;;;12.80;8.02;;;;;;;7.65;99.72;99688.31;5115546;28;20071;-64
2022/01/04 05:32:31;;;;;;;12.15;7.47;;;;;;;7.68;99.50;99689.13;5115933;28;20081;-66
2022/01/04 05:34:56;;;;;;;15.10;8.57;;;;;;;7.57;100.00;99685.88;5115755;28;20043;-68
2022/01/04 05:37:22;;;;;;;13.65;8.10;;;;;;;7.51;100.00;99669.53;5115757;28;20038;-65
2022/01/04 05:39:47;;;;;;;13.52;8.32;;;;;;;7.44;100.00;99668.81;5115632;28;20347;-67
2022/01/04 05:42:12;;;;;;;14.70;8.20;;;;;;;7.47;100.00;99667.84;5114834;28;20042;-64
2022/01/04 05:44:38;;;;;;;12.65;8.57;;;;;;;7.44;100.00;99663.59;5115563;28;20035;-65
2022/01/04 05:47:05;;;;;;;13.15;8.30;;;;;;;7.49;100.00;99658.28;5115447;28;20487;-68
2022/01/04 05:49:30;;;;;;;14.93;8.98;;;;;;;7.40;100.00;99648.91;5115451;28;20055;-64
2022/01/04 05:51:56;;;;;;;13.65;8.98;;;;;;;7.43;100.00;99650.59;5115424;28;20406;-64
2022/01/04 05:54:21;;;;;;;12.73;8.75;;;;;;;7.43;100.00;99654.06;5115506;28;20032;-69
2022/01/04 05:56:46;;;;;;;13.70;9.50;;;;;;;7.42;100.00;99665.38;5115126;28;20031;-65
2022/01/04 05:59:12;;;;;;;14.57;8.95;;;;;;;7.43;100.00;99653.22;5115288;28;20422;-65
2022/01/04 06:01:37;;;;;;;14.65;8.85;;;;;;;7.43;100.00;99656.66;5115188;28;20115;-70
2022/01/04 06:04:03;;;;;;;16.38;9.80;;;;;;;7.41;100.00;99647.19;5115158;28;20058;-65
2022/01/04 06:06:28;;;;;;;15.00;9.38;;;;;;;7.45;100.00;99646.19;5114984;28;20046;-65
2022/01/04 06:08:53;;;;;;;14.68;9.25;;;;;;;7.42;100.00;99644.53;5115319;28;20050;-65
2022/01/04 06:17:00;;;;;;;15.10;10.15;;;;;;;7.36;100.00;99638.59;5115180;28;20042;-66
2022/01/04 06:19:26;;;;;;;17.73;10.70;;;;;;;7.40;100.00;99648.91;5115369;28;20349;-64
2022/01/04 06:21:51;;;;;;;16.20;10.23;;;;;;;7.35;100.00;99637.72;5115178;28;20431;-65
2022/01/04 06:24:17;;;;;;;15.00;10.05;;;;;;;7.37;100.00;99627.28;5118974;28;20065;-65
2022/01/04 06:26:42;;;;;;;15.15;10.57;;;;;;;7.35;100.00;99622.13;5117857;28;20030;-64
2022/01/04 06:29:08;;;;;;;13.82;10.40;;;;;;;7.48;100.00;99622.72;5114740;28;20499;-64
2022/01/04 06:31:34;;;;;;;16.50;11.00;;;;;;;7.37;100.00;99629.91;5115158;28;20031;-64
2022/01/04 06:33:59;;;;;;;16.75;10.80;;;;;;;7.40;100.00;99629.84;5115141;28;20066;-65
2022/01/04 06:36:25;;;;;;;17.15;10.60;;;;;;;7.31;100.00;99633.47;5107366;28;20036;-65
2022/01/04 06:38:50;;;;;;;18.48;10.82;;;;;;;7.39;100.00;99633.34;5114885;28;20034;-66
2022/01/04 06:41:16;;;;;;;17.27;11.27;;;;;;;7.35;100.00;99624.72;5115059;28;20407;-65
2022/01/04 06:43:41;;;;;;;17.70;10.73;;;;;;;7.39;100.00;99623.78;5114868;28;20028;-64
2022/01/04 06:46:08;;;;;;;16.30;10.57;;;;;;;7.37;100.00;99629.91;5115161;28;20042;-67
2022/01/04 06:48:33;;;;;;;15.85;10.98;;;;;;;7.37;100.00;99629.91;5115003;28;20072;-64
2022/01/04 06:50:59;;;;;;;15.07;10.85;;;;;;;7.45;100.00;99612.38;5114962;28;20031;-65
2022/01/04 06:53:24;;;;;;;15.43;10.68;;;;;;;7.40;100.00;99615.09;5116844;28;20126;-64
2022/01/04 06:55:53;;;;;;;16.88;10.50;;;;;;;7.42;100.00;99604.66;5118688;28;20028;-64
2022/01/04 06:58:18;;;;;;;16.15;10.32;;;;;;;7.39;100.00;99607.31;5118877;28;20039;-65
2022/01/04 07:00:44;;;;;;;15.45;10.95;;;;;;;7.39;100.00;99597.75;5112502;28;20031;-65
2022/01/04 07:03:09;;;;;;;18.33;10.85;;;;;;;7.33;100.00;99598.72;5106199;28;20066;-66
2022/01/04 07:05:35;;;;;;;19.70;11.95;;;;;;;7.32;100.00;99603.97;5107619;28;20074;-64
2022/01/04 07:08:01;;;;;;;18.50;11.68;;;;;;;7.31;100.00;99602.25;5106452;28;20020;-63
2022/01/04 07:10:26;;;;;;;15.82;11.27;;;;;;;7.35;100.00;99601.31;5111752;28;20027;-63
2022/01/04 07:12:52;;;;;;;18.25;11.63;;;;;;;7.33;100.00;99579.66;5105474;28;20039;-63
2022/01/04 07:15:17;;;;;;;18.35;12.18;;;;;;;7.31;100.00;99576.22;5105639;28;20024;-62
2022/01/04 07:17:42;;;;;;;23.10;11.90;;;;;;;7.30;100.00;99584.91;5097838;28;20059;-61
2022/01/04 07:20:09;;;;;;;19.75;11.82;;;;;;;7.33;100.00;99583.13;5105808;28;20458;-62
2022/01/04 07:22:34;;;;;;;20.08;12.43;;;;;;;7.30;100.00;99580.56;5105751;28;20043;-62
2022/01/04 07:24:59;;;;;;;20.50;12.63;;;;;;;7.34;100.00;99589.19;5097342;28;20487;-63
2022/01/04 07:27:24;;;;;;;17.77;11.95;;;;;;;7.30;100.00;99580.56;5097773;28;20031;-61
2022/01/04 07:29:50;;;;;;;19.83;12.07;;;;;;;7.36;100.00;99566.59;5097484;28;20363;-62
2022/01/04 07:32:15;;;;;;;19.38;12.25;;;;;;;7.32;100.00;99572.72;5097693;28;20024;-62
2022/01/04 07:34:40;;;;;;;18.15;11.63;;;;;;;7.30;100.00;99551.94;5097753;28;20038;-61
2022/01/04 07:37:06;;;;;;;18.65;11.75;;;;;;;7.32;100.00;99560.56;5097427;28;20085;-65
2022/01/04 07:39:31;;;;;;;22.02;13.20;;;;;;;7.36;100.00;99552.72;5097322;28;20028;-61
2022/01/04 07:41:57;;;;;;;21.75;12.00;;;;;;;7.31;100.00;99532.84;5097195;28;20440;-61
2022/01/04 07:44:23;;;;;;;19.63;12.30;;;;;;;7.40;100.00;99539.63;5097273;28;20040;-62
2022/01/04 07:46:48;;;;;;;19.42;11.85;;;;;;;7.40;100.00;99538.75;5097371;28;20082;-61
2022/01/04 07:49:15;;;;;;;23.85;12.68;;;;;;;7.28;100.00;99547.66;5097639;28;20036;-64
2022/01/04 07:51:41;;;;;;;21.20;13.13;;;;;;;7.22;100.00;99548.66;5097024;28;20039;-64
2022/01/04 07:54:06;;;;;;;22.60;13.75;;;;;;;7.29;100.00;99564.97;5096968;28;20036;-62
2022/01/04 07:56:32;;;;;;;27.05;13.93;;;;;;;7.22;100.00;99566.88;5099568;28;20036;-61
2022/01/04 07:59:00;;;;;;;27.05;13.88;;;;;;;7.27;100.00;99578.03;5111115;28;20142;-64
2022/01/04 08:01:29;;;;;;;25.45;14.50;;;;;;;7.27;100.00;99578.03;5117462;28;20362;-62
2022/01/04 08:03:55;;;;;;;23.20;13.60;;;;;;;7.28;100.00;99568.47;5116554;28;20028;-65
2022/01/04 08:06:20;;;;;;;25.35;14.35;;;;;;;7.26;100.00;99560.72;5116837;28;20093;-63
2022/01/04 08:08:45;;;;;;;28.63;13.93;;;;;;;7.32;100.00;99555.38;5101375;28;20032;-62
2022/01/04 08:11:11;;;;;;;22.48;13.73;;;;;;;7.34;100.00;99558.81;5096470;28;20031;-62
2022/01/04 08:13:36;;;;;;;22.05;14.02;;;;;;;7.37;100.00;99557.03;5096210;28;20464;-62
2022/01/04 08:16:02;;;;;;;25.00;13.75;;;;;;;7.34;100.00;99558.81;5096460;28;20032;-62
2022/01/04 08:18:27;;;;;;;25.95;14.23;;;;;;;7.35;100.00;99559.66;5101707;28;20019;-62
2022/01/04 08:20:56;;;;;;;25.20;14.38;;;;;;;7.36;100.00;99571.78;5101167;28;20043;-62
2022/01/04 08:23:22;;;;;;;26.20;14.80;;;;;;;7.30;100.00;99551.09;5095821;28;20447;-63
2022/01/04 08:25:47;;;;;;;24.70;14.10;;;;;;;7.36;100.00;99574.38;5096760;28;20042;-66
2022/01/04 08:28:13;;;;;;;25.15;14.57;;;;;;;7.35;100.00;99564.88;5116412;28;20034;-61
2022/01/04 08:30:38;;;;;;;26.45;14.20;;;;;;;7.37;100.00;99557.88;5098045;28;20156;-63
2022/01/04 08:33:03;;;;;;;27.45;15.15;;;;;;;7.37;100.00;99562.25;5116620;28;20027;-62
2022/01/04 08:35:29;;;;;;;26.35;15.15;;;;;;;7.41;100.00;99564.75;5100916;28;20036;-60
2022/01/04 08:37:54;;;;;;;26.33;15.38;;;;;;;7.40;100.00;99568.25;5109552;28;20095;-66
2022/01/04 08:40:19;;;;;;;27.23;14.95;;;;;;;7.42;100.00;99570.81;5116442;28;20035;-66
2022/01/04 08:42:45;;;;;;;29.00;14.63;;;;;;;7.42;100.00;99576.03;5116405;28;20077;-67
2022/01/04 08:45:10;;;;;;;30.67;15.35;;;;;;;7.52;100.00;99601.81;5099039;28;20035;-66
2022/01/04 08:47:36;;;;;;;23.20;13.60;;;;;;;7.45;100.00;99594.16;5096071;28;20028;-66
2022/01/04 08:50:04;;;;;;;26.23;14.57;;;;;;;7.44;100.00;99600.28;5095979;28;20039;-66
2022/01/04 08:52:29;;;;;;;26.35;14.40;;;;;;;7.32;100.00;99586.59;5098106;28;20431;-66
2022/01/04 08:54:55;;;;;;;25.45;14.02;;;;;;;7.41;100.00;99610.75;5095672;28;20039;-67
2022/01/04 08:57:21;;;;;;;24.83;14.25;;;;;;;7.41;100.00;99610.75;5095598;28;20039;-65
2022/01/04 08:59:47;;;;;;;25.05;14.70;;;;;;;7.47;100.00;99613.19;5095901;28;20039;-64
2022/01/04 09:02:12;;;;;;;27.30;14.90;;;;;;;7.45;100.00;99613.22;5095495;28;20439;-65
2022/01/04 09:04:38;;;;;;;28.35;15.02;;;;;;;7.41;100.00;99601.19;5100844;28;20062;-67
2022/01/04 09:07:03;;;;;;;26.77;15.20;;;;;;;7.46;100.00;99588.91;5106982;28;20019;-64
2022/01/04 09:09:29;;;;;;;27.00;14.43;;;;;;;7.56;100.00;99572.22;5113152;28;20423;-64
2022/01/04 09:11:54;;;;;;;29.05;14.88;;;;;;;7.58;100.00;99573.06;5115865;28;20024;-65
2022/01/04 09:14:30;;;;;;;26.45;14.23;;;;;;;7.57;100.00;99581.75;5116019;28;20044;-67
2022/01/04 09:19:39;;;;;;;29.15;15.38;;;;;;;7.56;100.00;99568.78;5116142;28;20054;-65
2022/01/04 09:22:05;;;;;;;26.60;14.63;;;;;;;7.62;100.00;99579.03;5115778;28;20027;-65
2022/01/04 09:24:31;;;;;;;28.63;16.42;;;;;;;7.54;100.00;99550.56;5115911;28;20132;-66
2022/01/04 09:26:57;;;;;;;28.77;15.75;;;;;;;7.61;100.00;99582.56;5115722;28;20027;-66
2022/01/04 09:29:23;;;;;;;29.35;15.15;;;;;;;7.58;100.00;99603.44;5097655;28;20115;-66
2022/01/04 09:31:50;;;;;;;29.95;16.70;;;;;;;7.68;100.00;99607.53;5115836;28;20039;-66
2022/01/04 09:34:16;;;;;;;28.65;15.10;;;;;;;7.69;100.00;99602.31;5115247;28;20422;-61
2022/01/04 09:36:43;;;;;;;29.73;16.80;;;;;;;7.68;100.00;99613.59;5115499;28;20032;-67
2022/01/04 09:39:15;;;;;;;31.77;17.65;;;;;;;7.71;100.00;99611.84;5115720;28;20450;-65
2022/01/04 09:41:42;;;;;;;29.65;16.20;;;;;;;7.67;100.00;99593.66;5115414;28;20072;-67
2022/01/04 09:44:07;;;;;;;29.73;16.38;;;;;;;7.65;100.00;99595.44;5115105;28;20111;-64
2022/01/04 09:46:33;;;;;;;29.83;16.25;;;;;;;7.73;100.00;99597.03;5104198;28;20123;-66
2022/01/04 09:48:59;;;;;;;29.52;16.77;;;;;;;7.74;100.00;99601.34;5103174;28;20074;-64
2022/01/04 09:51:26;;;;;;;28.65;16.90;;;;;;;7.77;100.00;99601.28;5103359;28;20040;-63
2022/01/04 09:53:51;;;;;;;35.72;18.40;;;;;;;7.72;100.00;99598.78;5101169;28;20039;-66
2022/01/04 09:56:16;;;;;;;33.50;18.83;;;;;;;7.78;100.00;99600.41;5100270;28;20027;-65
2022/01/04 09:58:42;;;;;;;35.13;18.35;;;;;;;7.82;100.00;99600.28;5102975;28;20400;-66
2022/01/04 10:01:27;;;;;;;32.20;18.85;;;;;;;7.79;100.00;99589.09;5103528;28;20090;-58
2022/01/04 10:03:52;;;;;;;34.38;18.77;;;;;;;7.79;100.00;99592.56;5106013;28;20358;-68
2022/01/04 10:06:18;;;;;;;36.78;19.20;;;;;;;7.76;100.00;99581.34;5103320;28;20020;-67
2022/01/04 10:09:06;;;;;;;37.05;19.05;;;;;;;7.81;100.00;99595.97;5105209;28;20031;-69
2022/01/04 10:11:42;;;;;;;32.78;19.10;;;;;;;7.86;100.00;99591.53;5104624;28;20096;-67
2022/01/04 10:14:29;;;;;;;35.63;19.77;;;;;;;7.88;100.00;99581.06;5104347;28;20055;-67
2022/01/04 10:17:00;;;;;;;34.78;20.00;;;;;;;7.90;100.00;99577.53;5105139;28;20120;-66
2022/01/04 10:19:31;;;;;;;38.35;20.83;;;;;;;7.94;100.00;99565.31;5104105;28;20028;-66
2022/01/04 10:22:14;;;;;;;37.47;19.15;;;;;;;8.05;100.00;99558.09;5085046;28;20403;-67
2022/01/04 10:24:40;;;;;;;36.53;20.65;;;;;;;8.07;100.00;99565.88;5103066;28;20016;-66
2022/01/04 10:27:23;;;;;;;33.80;19.88;;;;;;;8.09;100.00;99569.31;5107226;28;20062;-66
2022/01/04 10:29:48;;;;;;;41.17;20.42;;;;;;;8.08;100.00;99562.38;5119307;28;20024;-66
2022/01/04 10:32:15;;;;;;;38.15;19.38;;;;;;;8.06;100.00;99564.16;5118903;28;20040;-70
2022/01/04 10:34:49;;;;;;;36.60;20.40;;;;;;;8.00;100.00;99545.16;5118601;28;20024;-67
2022/01/04 10:37:36;;;;;;;35.28;20.45;;;;;;;8.14;100.00;99557.03;5115718;28;20061;-68
2022/01/04 10:40:07;;;;;;;37.25;21.00;;;;;;;8.17;100.00;99556.94;5116860;28;20038;-65
2022/01/04 10:42:34;;;;;;;42.28;22.25;;;;;;;8.21;100.00;99563.78;5118870;28;20093;-65
2022/01/04 10:44:59;;;;;;;35.28;19.60;;;;;;;8.18;100.00;99553.44;5111804;28;20111;-65
2022/01/04 10:47:26;;;;;;;40.03;20.48;;;;;;;8.21;100.00;99561.19;5103529;28;20473;-67
2022/01/04 10:49:51;;;;;;;43.17;22.50;;;;;;;8.19;100.00;99549.94;5098281;28;20035;-66
2022/01/04 10:52:22;;;;;;;43.72;21.23;;;;;;;8.27;100.00;99556.69;5109960;28;20039;-67
2022/01/04 10:55:14;;;;;;;38.08;20.45;;;;;;;8.30;100.00;99550.56;5100329;28;20034;-68
2022/01/04 10:57:40;;;;;;;35.30;21.20;;;;;;;8.22;100.00;99542.91;5118111;28;20123;-67
2022/01/04 11:00:20;;;;;;;41.67;21.17;;;;;;;8.28;100.00;99557.53;5118128;28;20311;-66
2022/01/04 11:02:46;;;;;;;41.38;20.88;;;;;;;8.27;100.00;99556.69;5118214;28;20027;-67
2022/01/04 11:05:17;;;;;;;40.75;21.40;;;;;;;8.28;100.00;99547.13;5118211;28;20083;-66
2022/01/04 11:08:03;;;;;;;39.47;21.65;;;;;;;8.44;100.00;99552.84;5118044;28;20410;-66
2022/01/04 11:10:34;;;;;;;42.85;21.83;;;;;;;8.31;100.00;99549.66;5118033;28;20466;-67
2022/01/04 11:13:00;;;;;;;38.92;22.98;;;;;;;8.35;100.00;99546.09;5118159;28;20083;-66
2022/01/04 11:15:26;;;;;;;42.83;22.60;;;;;;;8.34;100.00;99539.16;5118091;28;20454;-68
2022/01/04 11:17:52;;;;;;;39.78;22.35;;;;;;;8.33;100.00;99533.09;5118294;28;20028;-68
2022/01/04 11:20:17;;;;;;;39.20;21.85;;;;;;;8.36;100.00;99533.03;5117928;28;20131;-65
2022/01/04 11:22:48;;;;;;;41.83;22.67;;;;;;;8.37;100.00;99545.16;5117927;28;20031;-68
2022/01/04 11:25:16;;;;;;;41.28;23.05;;;;;;;8.42;99.77;99541.59;5117787;28;20144;-67
2022/01/04 11:27:42;;;;;;;38.30;21.23;;;;;;;8.37;99.64;99563.41;5112828;28;20027;-67
2022/01/04 11:30:17;;;;;;;39.28;21.75;;;;;;;8.44;100.00;99552.84;5097502;28;20027;-67
2022/01/04 11:32:45;;;;;;;37.50;21.63;;;;;;;8.35;99.20;99546.09;5097498;28;20113;-68
2022/01/04 11:35:16;;;;;;;39.33;22.27;;;;;;;8.35;100.00;99557.38;5097357;28;20442;-68
2022/01/04 11:37:51;;;;;;;38.47;21.90;;;;;;;8.41;100.00;99563.34;5097500;28;20028;-66